Etusivu
METAR-TAF:

METAR-TAF

Lentoasemat :

Julius Nyereren kansainvälinen lentoasema

Dar es Salaam, Tansania

Leveyspiiri: 06-52S, Pituuspiiri: 039-12E, korkeus merenpinnasta: 55 m

Tämänhetkinen sää

Tämä raportti tehtiin 4 tuntia ja 23 minuuttia sitten, kello 13.00 UTC
Tuuli 8 kn etelästä
Lämpötila 30°C
Kosteus 49%
Ilmanpaine 1015 hPa
Näkyvyys 10 km tai enemmän
Muutamia pilviä 3300 ft:n korkeudessa

METAR: HTDA 131300Z 17008KT 9999 FEW033 30/18 Q1015 NOSIG

Aika: 20:23 (17:23 UTC)

Sääennuste

Tämä raportti tehtiin 6 tuntia ja 23 minuuttia sitten, kello 11.00 UTC
Ennuste voimassa 13. päivästä klo 12 UTC - 14. päivään klo 18 UTC
Tuuli 15 kn lounaasta
Näkyvyys 10 km tai enemmän
Hajanaisia pilviä 3000 ft:n korkeudessa
Tulossa
13. päivästä klo 18 UTC - 13. päivään klo 21 UTC
Tuuli 5 kn lännestä/lounaasta

TAF: HTDA 131100Z 1312/1418 22015KT 9999 SCT030 BECMG 1318/1321 24005KT

Säähavainnot ja -ennusteet yli 4000 lentoasemalta (METAR- ja TAF-raportit).

Käytössä olevat sääasemat on merkitty karttaan keltaisilla ja punaisilla pisteillä.

Aseta hiiri pisteen päälle nähdäksesi sääaseman nimen.

Klikkaa sitten nähdäksesi säähavainnot ja -ennusteet.

Kartan vaihtaminen: klikkaa mustalla rastilla varustettuja vihreitä pisteitä, niin voit zoomata sisään; viivalla varustettua vihreää pistettä, niin voit zoomata ulos tai vihreitä nuolia, niin pääset viereisille kartoille.


METAR-TAF: